地図

経路データ

SID SEASON NUMBER BASIN SUBBASIN NAME ISO_TIME NATURE LAT LON WMO_WIND WMO_PRES WMO_AGENCY TRACK_TYPE DIST2LAND LANDFALL IFLAG USA_AGENCY USA_ATCF_ID USA_LAT USA_LON USA_RECORD USA_STATUS USA_WIND USA_PRES USA_SSHS USA_R34_NE USA_R34_SE USA_R34_SW USA_R34_NW USA_R50_NE USA_R50_SE USA_R50_SW USA_R50_NW USA_R64_NE USA_R64_SE USA_R64_SW USA_R64_NW USA_POCI USA_ROCI USA_RMW USA_EYE TOKYO_LAT TOKYO_LON TOKYO_GRADE TOKYO_WIND TOKYO_PRES TOKYO_R50_DIR TOKYO_R50_LONG TOKYO_R50_SHORT TOKYO_R30_DIR TOKYO_R30_LONG TOKYO_R30_SHORT TOKYO_LAND CMA_LAT CMA_LON CMA_CAT CMA_WIND CMA_PRES HKO_LAT HKO_LON HKO_CAT HKO_WIND HKO_PRES NEWDELHI_LAT NEWDELHI_LON NEWDELHI_GRADE NEWDELHI_WIND NEWDELHI_PRES NEWDELHI_CI NEWDELHI_DP NEWDELHI_POCI REUNION_LAT REUNION_LON REUNION_TYPE REUNION_WIND REUNION_PRES REUNION_TNUM REUNION_CI REUNION_RMW REUNION_R34_NE REUNION_R34_SE REUNION_R34_SW REUNION_R34_NW REUNION_R50_NE REUNION_R50_SE REUNION_R50_SW REUNION_R50_NW REUNION_R64_NE REUNION_R64_SE REUNION_R64_SW REUNION_R64_NW BOM_LAT BOM_LON BOM_TYPE BOM_WIND BOM_PRES BOM_TNUM BOM_CI BOM_RMW BOM_R34_NE BOM_R34_SE BOM_R34_SW BOM_R34_NW BOM_R50_NE BOM_R50_SE BOM_R50_SW BOM_R50_NW BOM_R64_NE BOM_R64_SE BOM_R64_SW BOM_R64_NW BOM_ROCI BOM_POCI BOM_EYE BOM_POS_METHOD BOM_PRES_METHOD NADI_LAT NADI_LON NADI_CAT NADI_WIND NADI_PRES WELLINGTON_LAT WELLINGTON_LON WELLINGTON_WIND WELLINGTON_PRES DS824_LAT DS824_LON DS824_STAGE DS824_WIND DS824_PRES TD9636_LAT TD9636_LON TD9636_STAGE TD9636_WIND TD9636_PRES TD9635_LAT TD9635_LON TD9635_WIND TD9635_PRES TD9635_ROCI NEUMANN_LAT NEUMANN_LON NEUMANN_CLASS NEUMANN_WIND NEUMANN_PRES MLC_LAT MLC_LON MLC_CLASS MLC_WIND MLC_PRES USA_GUST BOM_GUST BOM_GUST_PER REUNION_GUST REUNION_GUST_PER USA_SEAHGT USA_SEARAD_NE USA_SEARAD_SE USA_SEARAD_SW USA_SEARAD_NW STORM_SPEED STORM_DIR
1969318S20155 1970 111 SP EA NOT_NAMED 1969-11-13 23:00:00 NR -20.0000 154.700 main 491 467 __________O___ -1 -20.0000 154.700 1 20 13 239
1969318S20155 1970 111 SP EA NOT_NAMED 1969-11-14 00:00:00 TS -20.1065 154.506 main 467 420 O________OP___ jtwc_sh SH031970 -20.1000 154.500 20 -1 -20.1000 154.500 TC 20 -20.1131 154.513 1 20 13 243
1969318S20155 1970 111 SP EA NOT_NAMED 1969-11-14 02:00:00 TS -20.3015 154.067 1006 bom main 420 397 P_____O__PP___ SH031970 -20.3224 154.024 20 -1 -20.1000 154.000 1006 -20.3224 154.024 TC 20 -20.3407 154.147 1 20 14 244
1969318S20155 1970 111 SP EA NOT_NAMED 1969-11-14 03:00:00 TS -20.4097 153.854 main 397 350 P_____P__PP___ SH031970 -20.4359 153.803 20 -1 -20.2375 153.771 1006 -20.4359 153.803 TC 20 -20.4564 153.972 1 20 13 238
1969318S20155 1970 111 SP EA NOT_NAMED 1969-11-14 05:00:00 TS -20.6443 153.486 1006 bom main 350 335 P_____O__PP___ SH031970 -20.6735 153.434 20 -1 -20.5000 153.400 1006 -20.6735 153.434 TC 20 -20.6942 153.653 1 20 12 234
1969318S20155 1970 111 SP EA NOT_NAMED 1969-11-14 06:00:00 TS -20.7506 153.349 main 320 299 O_____P__OP___ jtwc_sh SH031970 -20.8000 153.300 20 -1 -20.6224 153.296 1006 -20.8000 153.300 TC 20 -20.8175 153.513 1 20 9 215
1969318S20155 1970 111 SP EA NOT_NAMED 1969-11-14 08:00:00 TS -21.0228 153.198 1006 bom main 299 287 P_____O__PP___ SH031970 -21.0729 153.152 20 -1 -20.9000 153.200 1006 -21.0729 153.152 TC 20 -21.0755 153.283 1 20 9 203
1969318S20155 1970 111 SP EA NOT_NAMED 1969-11-14 09:00:00 TS -21.1787 153.154 main 287 262 P_____P__PP___ SH031970 -21.2196 153.130 20 -1 -21.0896 153.153 1006 -21.2196 153.130 TC 20 -21.2114 153.198 1 20 10 187
1969318S20155 1970 111 SP EA NOT_NAMED 1969-11-14 11:00:00 TS -21.5159 153.125 1006 bom main 262 253 P_____O__PO___ SH031970 -21.5332 153.159 20 -1 -21.5000 153.100 1006 -21.5332 153.159 TC 20 -21.5000 153.100 1 20 10 182
1969318S20155 1970 111 SP EA NOT_NAMED 1969-11-14 12:00:00 TS -21.6835 153.135 main 253 249 O_____P__OP___ jtwc_sh SH031970 -21.7000 153.200 20 -1 -21.6637 153.087 1005 -21.7000 153.200 TC 20 -21.6538 153.091 1 20 10 174
1969318S20155 1970 111 SP EA NOT_NAMED 1969-11-14 14:00:00 TS -22.0247 153.192 1005 bom main 253 249 P_____O__PP___ SH031970 -22.0292 153.288 20 -1 -22.0000 153.100 1005 -22.0292 153.288 TC 20 -21.9841 153.144 1 20 11 170
1969318S20155 1970 111 SP EA NOT_NAMED 1969-11-14 15:00:00 TS -22.2145 153.239 main 249 234 P_____P__PP___ SH031970 -22.2050 153.355 20 -1 -22.2229 153.104 1005 -22.2050 153.355 TC 20 -22.1621 153.201 1 20 13 164
1969318S20155 1970 111 SP EA NOT_NAMED 1969-11-14 17:00:00 TS -22.6222 153.381 1005 bom main 234 218 P_____O__PP___ SH031970 -22.5886 153.515 20 -1 -22.7000 153.200 1005 -22.5886 153.515 TC 20 -22.5479 153.361 1 20 13 160
1969318S20155 1970 111 SP EA NOT_NAMED 1969-11-14 18:00:00 TS -22.8320 153.481 main 224 181 O_____P__OP___ jtwc_sh SH031970 -22.8000 153.600 20 -1 -22.9026 153.346 1005 -22.8000 153.600 TC 20 -22.7572 153.458 1 20 14 155
1969318S20155 1970 111 SP EA NOT_NAMED 1969-11-14 20:00:00 TS -23.2682 153.701 1005 bom main 172 153 P_____O__PP___ SH031970 -23.2467 153.764 20 -1 -23.3000 153.700 1005 -23.2467 153.764 TC 20 -23.2127 153.673 1 20 15 156
1969318S20155 1970 111 SP EA NOT_NAMED 1969-11-14 21:00:00 TS -23.5035 153.804 main 153 114 P_____P__PP___ SH031970 -23.4901 153.850 20 -1 -23.5145 153.816 1005 -23.4901 153.850 TC 20 -23.4604 153.784 1 20 16 160
1969318S20155 1970 111 SP EA NOT_NAMED 1969-11-14 23:00:00 TS -24.0155 154.003 1005 bom main 114 105 P_____O__PO___ SH031970 -24.0167 154.020 20 -1 -24.0000 154.000 1005 -24.0167 154.020 TC 20 -24.0000 154.000 1 20 17 161
1969318S20155 1970 111 SP EA NOT_NAMED 1969-11-15 00:00:00 TS -24.2931 154.101 main 98 87 O_____P__OP___ jtwc_sh SH031970 -24.3000 154.100 20 -1 -24.2896 154.095 1004 -24.3000 154.100 TC 20 -24.2760 154.112 1 20 18 162
1969318S20155 1970 111 SP EA NOT_NAMED 1969-11-15 02:00:00 TS -24.8619 154.303 1004 bom main 91 90 P_____O__PP___ SH031970 -24.8746 154.242 20 -1 -24.9000 154.300 1004 -24.8746 154.242 TC 20 -24.8716 154.349 1 20 18 162
1969318S20155 1970 111 SP EA NOT_NAMED 1969-11-15 03:00:00 TS -25.1544 154.407 main 103 103 P_____P__PP___ SH031970 -25.1825 154.308 20 -1 -25.1637 154.436 1004 -25.1825 154.308 TC 20 -25.1903 154.466 1 20 19 164
1969318S20155 1970 111 SP EA NOT_NAMED 1969-11-15 05:00:00 TS -25.7817 154.597 1004 bom main 144 144 P_____O__PP___ SH031970 -25.8443 154.436 20 -1 -25.7000 154.700 1004 -25.8443 154.436 TC 20 -25.8681 154.680 1 20 20 166
1969318S20155 1970 111 SP EA NOT_NAMED 1969-11-15 06:00:00 TS -26.1233 154.673 main 159 159 O_____P__OP___ jtwc_sh SH031970 -26.2000 154.500 20 -1 -25.9904 154.793 1004 -26.2000 154.500 TC 20 -26.2264 154.771 1 20 22 170
1969318S20155 1970 111 SP EA NOT_NAMED 1969-11-15 08:00:00 TS -26.8755 154.803 1004 bom main 159 151 P_____O__PP___ SH031970 -26.9443 154.696 20 -1 -26.7000 154.900 1004 -26.9443 154.696 TC 20 -26.9803 154.898 1 20 24 172
1969318S20155 1970 111 SP EA NOT_NAMED 1969-11-15 09:00:00 TS -27.2954 154.854 main 159 127 P_____P__PP___ SH031970 -27.3400 154.787 20 -1 -27.1549 154.958 1004 -27.3400 154.787 TC 20 -27.3753 154.928 1 20 26 177
1969318S20155 1970 111 SP EA NOT_NAMED 1969-11-15 11:00:00 TS -28.1877 154.875 1004 bom main 127 117 P_____O__PO___ SH031970 -28.1697 154.900 20 -1 -28.2000 154.900 1004 -28.1697 154.900 TC 20 -28.2000 154.900 1 20 27 182
1969318S20155 1970 111 SP EA NOT_NAMED 1969-11-15 12:00:00 TS -28.6447 154.820 main 117 106 O_____P__OP___ jtwc_sh SH031970 -28.6000 154.900 20 -1 -28.7358 154.701 1004 -28.6000 154.900 TC 20 -28.6290 154.836 1 20 29 192
1969318S20155 1970 111 SP EA NOT_NAMED 1969-11-15 14:00:00 TS -29.5832 154.527 1005 bom main 108 96 P_____O__PP___ SH031970 -29.4831 154.756 20 -1 -29.8000 154.100 1005 -29.4831 154.756 TC 20 -29.5166 154.609 1 20 30 198
1969318S20155 1970 111 SP EA NOT_NAMED 1969-11-15 15:00:00 TS -30.0598 154.289 main 98 48 P_____P__PP___ SH031970 -29.9330 154.626 20 -1 -30.2731 153.788 1004 -29.9330 154.626 TC 20 -29.9733 154.453 1 20 31 206
1969318S20155 1970 111 SP EA NOT_NAMED 1969-11-15 18:00:00 TS -31.4340 153.504 main 48 36 O_____P__OP___ jtwc_sh SH031970 -31.3000 154.100 20 -1 -31.5526 152.872 1004 -31.3000 154.100 TC 20 -31.3825 153.839 1 20 31 207
1969318S20155 1970 111 SP EA NOT_NAMED 1969-11-15 20:00:00 NR -32.3722 152.918 1004 bom main 37 35 ______O___P___ SH031970 -1 -32.4000 152.500 1004 TC -32.3444 153.336 1 20 31 204
1969318S20155 1970 111 SP EA NOT_NAMED 1969-11-15 21:00:00 NR -32.8408 152.755 main 52 51 ______P___P___ SH031970 -1 -32.8526 152.444 1004 TC -32.8290 153.066 1 20 30 194
1969318S20155 1970 111 SP EA NOT_NAMED 1969-11-15 23:00:00 NR -33.8000 152.500 1004 bom main 98 ______O___O___ SH031970 -1 -33.8000 152.500 1004 TC -33.8000 152.500 1 20 30 193

デジタル台風データ・検索

IBTrACS Databaseについて

本データベースは、米国NOAAが公開する1842年以降の世界の熱帯低気圧のベストトラックデータアーカイブInternational Best Track Archive for Climate Stewardship (IBTrACS)を、ウェブで閲覧しやすい形式に変換したものです。

最終更新日:2021-12-06